Concerto — JJ3855 — position and weather

sailwx.info

Track history (hours):
 
Tides and Currents Weather Stations Pressure Air Temp Water Temp Dewpoint Dewpoint Depression Visibility Wind Speed Wind Dir Waves Ship Positions

Concerto

Last reported at 2016-Jun-28 11:33 UTC. Time now 2016-Jun-28 18:50 UTC.
Position N 34°37' E 135°10'.

Length 74 m; draft 3 m.

Type: Passenger vessel. MMSI: 431000448.

Date/timePositionNaut miles runAvg speedWind from/ knotsBaromVisibWave heightAir tempDewpointWater temp
2016-Jun-28 11:33N 34°37' E 135°10'1 0.5
2016-Jun-28 10:33N 34°38' E 135°09'3 2.8
2016-Jun-28 09:23N 34°41' E 135°11'5 6.0
2016-Jun-28 08:33N 34°37' E 135°07'5 5.0
2016-Jun-28 07:33N 34°41' E 135°11'3 2.5
2016-Jun-28 06:33N 34°38' E 135°11'0 0.2
2016-Jun-28 04:33N 34°39' E 135°11'2 1.7
2016-Jun-28 03:33N 34°38' E 135°09'3 3.1
2016-Jun-28 02:31N 34°41' E 135°11'3 0.2
2016-Jun-27 11:33N 34°38' E 135°09'0 0.5
2016-Jun-27 10:33N 34°38' E 135°09'3 2.7
2016-Jun-27 09:28N 34°41' E 135°11'5 5.5
2016-Jun-27 08:34N 34°37' E 135°07'5 5.0
2016-Jun-27 07:33N 34°41' E 135°11'2 2.2
2016-Jun-27 06:33N 34°39' E 135°11'2 2.2
2016-Jun-27 05:34N 34°41' E 135°11'2 1.8
2016-Jun-27 04:32N 34°39' E 135°11'2 2.2
2016-Jun-27 03:33N 34°38' E 135°09'0 0.0
2016-Jun-26 11:33N 34°38' E 135°09'0 0.3
2016-Jun-26 10:33N 34°38' E 135°09'3 2.7
2016-Jun-26 09:23N 34°41' E 135°11'5 5.6
2016-Jun-26 08:33N 34°38' E 135°07'5 4.6
2016-Jun-26 07:33N 34°41' E 135°11'2 2.2
2016-Jun-26 06:34N 34°39' E 135°11'2 2.2
2016-Jun-26 05:34N 34°41' E 135°11'1 1.4
2016-Jun-26 04:34N 34°39' E 135°11'2 2.4
2016-Jun-26 03:34N 34°38' E 135°09'3 3.4
2016-Jun-26 02:33N 34°41' E 135°11'0 0.0
2016-Jun-26 01:29N 34°41' E 135°11'0 0.0
2016-Jun-26 00:29N 34°41' E 135°11'0 0.0
2016-Jun-25 23:29N 34°41' E 135°11'0 0.0
2016-Jun-25 22:11N 34°41' E 135°11'0 0.0
2016-Jun-25 21:29N 34°41' E 135°11'0 0.0
2016-Jun-25 20:29N 34°41' E 135°11'0 0.0
2016-Jun-25 19:29N 34°41' E 135°11'0 0.0
2016-Jun-25 18:29N 34°41' E 135°11'0 0.0
2016-Jun-25 17:29N 34°41' E 135°11'0 0.0
2016-Jun-25 16:29N 34°41' E 135°11'0 0.0
2016-Jun-25 15:29N 34°41' E 135°11'0 0.0
2016-Jun-25 14:29N 34°41' E 135°11'0 0.0
2016-Jun-25 13:29N 34°41' E 135°11'0 0.0
2016-Jun-25 12:29N 34°41' E 135°11'3 3.3
2016-Jun-25 11:33N 34°38' E 135°10'0 0.2
2016-Jun-25 10:33N 34°38' E 135°10'3 2.9
2016-Jun-25 09:32N 34°41' E 135°11'4 4.1
2016-Jun-25 08:33N 34°37' E 135°09'4 4.0
2016-Jun-25 07:33N 34°41' E 135°11'2 2.2
2016-Jun-25 06:33N 34°39' E 135°11'2 2.1
2016-Jun-25 05:33N 34°41' E 135°11'2 1.8
2016-Jun-25 04:33N 34°39' E 135°11'5 4.7
2016-Jun-25 03:33N 34°37' E 135°06'6 5.7
2016-Jun-25 02:33N 34°41' E 135°11'0 0.0
2016-Jun-25 01:30N 34°41' E 135°11'0 0.0
2016-Jun-25 00:30N 34°41' E 135°11'0 0.0
2016-Jun-24 23:30N 34°41' E 135°11'0 0.0
2016-Jun-24 22:30N 34°41' E 135°11'0 0.0
2016-Jun-24 21:30N 34°41' E 135°11'0 0.0
2016-Jun-24 20:30N 34°41' E 135°11'0 0.0
2016-Jun-24 19:30N 34°41' E 135°11'0 0.0
2016-Jun-24 18:30N 34°41' E 135°11'0 0.0
2016-Jun-24 17:30N 34°41' E 135°11'0 0.0
2016-Jun-24 16:30N 34°41' E 135°11'0 0.0
2016-Jun-24 15:30N 34°41' E 135°11'0 0.0
2016-Jun-24 14:30N 34°41' E 135°11'0 0.0
2016-Jun-24 13:30N 34°41' E 135°11'0 0.0
2016-Jun-24 12:30N 34°41' E 135°11'2 2.1
2016-Jun-24 11:33N 34°39' E 135°11'2 1.7
2016-Jun-24 10:34N 34°38' E 135°09'3 3.2
2016-Jun-24 09:33N 34°41' E 135°11'4 4.3
2016-Jun-24 08:33N 34°37' E 135°08'4 4.3
2016-Jun-24 07:33N 34°41' E 135°11'1 0.5
2016-Jun-24 04:33N 34°39' E 135°11'2 1.6
2016-Jun-24 03:33N 34°38' E 135°10'1 0.1
2016-Jun-23 11:33N 34°38' E 135°09'0 0.3
2016-Jun-23 10:33N 34°38' E 135°09'3 3.5
2016-Jun-23 09:33N 34°41' E 135°11'5 4.9
2016-Jun-23 08:33N 34°37' E 135°07'5 4.7
2016-Jun-23 07:32N 34°41' E 135°11'0 0.0
2016-Jun-23 05:33N 34°41' E 135°11'2 2.2
2016-Jun-23 04:33N 34°39' E 135°11'2 1.8
2016-Jun-23 03:33N 34°38' E 135°09'3 0.2
2016-Jun-22 12:12N 34°41' E 135°11'3 5.4
2016-Jun-22 11:33N 34°38' E 135°09'0 0.3
2016-Jun-22 10:33N 34°38' E 135°10'3 3.1
2016-Jun-22 09:32N 34°41' E 135°11'5 5.1
2016-Jun-22 08:33N 34°37' E 135°07'5 5.0
2016-Jun-22 07:33N 34°41' E 135°11'2 2.5
2016-Jun-22 06:33N 34°38' E 135°11'2 2.5
2016-Jun-22 05:33N 34°41' E 135°11'2 1.7
2016-Jun-22 04:33N 34°39' E 135°11'2 2.1
2016-Jun-22 03:33N 34°38' E 135°09'3 3.3
2016-Jun-22 02:33N 34°41' E 135°11'0 0.0
2016-Jun-22 01:33N 34°41' E 135°11'0 0.0
2016-Jun-22 00:33N 34°41' E 135°11'0 0.0
2016-Jun-21 23:33N 34°41' E 135°11'0 0.0
2016-Jun-21 22:33N 34°41' E 135°11'0 0.0
2016-Jun-21 21:33N 34°41' E 135°11'0 0.0
2016-Jun-21 20:33N 34°41' E 135°11'0 0.0
2016-Jun-21 19:33N 34°41' E 135°11'0 0.0
2016-Jun-21 18:33N 34°41' E 135°11'0 0.0
2016-Jun-21 17:33N 34°41' E 135°11'0 0.0
2016-Jun-21 16:33N 34°41' E 135°11'0 0.0
2016-Jun-21 15:33N 34°41' E 135°11'0 0.0
2016-Jun-21 14:33N 34°41' E 135°11'0 0.0
2016-Jun-21 13:33N 34°41' E 135°11'0 0.0
2016-Jun-21 12:33N 34°41' E 135°11'3 3.3
2016-Jun-21 11:33N 34°38' E 135°10'1 0.7
2016-Jun-21 10:33N 34°38' E 135°09'4 3.5
2016-Jun-21 09:33N 34°41' E 135°11'5 4.9
2016-Jun-21 08:33N 34°37' E 135°07'5 4.8
2016-Jun-21 07:33N 34°41' E 135°11'3 2.5
2016-Jun-21 06:33N 34°38' E 135°11'1 0.5
2016-Jun-21 04:33N 34°39' E 135°11'2 2.0
2016-Jun-21 03:33N 34°38' E 135°09'3 3.0
2016-Jun-21 02:30N 34°41' E 135°11'0 0.0
2016-Jun-21 01:30N 34°41' E 135°11'0 0.0
2016-Jun-21 00:30N 34°41' E 135°11'0 0.0
2016-Jun-20 23:30N 34°41' E 135°11'0 0.0
2016-Jun-20 22:30N 34°41' E 135°11'0 0.0
2016-Jun-20 21:30N 34°41' E 135°11'0 0.0
2016-Jun-20 20:30N 34°41' E 135°11'0 0.0
2016-Jun-20 19:30N 34°41' E 135°11'0 0.0
2016-Jun-20 18:30N 34°41' E 135°11'0 0.0
2016-Jun-20 17:24N 34°41' E 135°11'0 0.0
2016-Jun-20 16:30N 34°41' E 135°11'0 0.0
2016-Jun-20 15:30N 34°41' E 135°11'0 0.0
2016-Jun-20 14:30N 34°41' E 135°11'0 0.0
2016-Jun-20 13:30N 34°41' E 135°11'0 0.0
2016-Jun-20 12:30N 34°41' E 135°11'3 3.4
2016-Jun-20 11:34N 34°38' E 135°10'1 0.6
2016-Jun-20 10:34N 34°38' E 135°09'3 3.3
2016-Jun-20 09:32N 34°41' E 135°11'5 4.8
2016-Jun-20 08:33N 34°37' E 135°08'5 4.6
2016-Jun-20 07:33N 34°41' E 135°11'2 2.3
2016-Jun-20 06:33N 34°39' E 135°11'2 2.2
2016-Jun-20 05:33N 34°41' E 135°11'2 1.9
2016-Jun-20 04:33N 34°39' E 135°11'2 1.9
2016-Jun-20 03:33N 34°38' E 135°09'3 2.9
2016-Jun-20 02:28N 34°41' E 135°11'0 0.0
2016-Jun-20 01:28N 34°41' E 135°11'0 0.0
2016-Jun-20 00:28N 34°41' E 135°11'0 0.0
2016-Jun-19 23:28N 34°41' E 135°11'0 0.0
2016-Jun-19 22:22N 34°41' E 135°11'0 0.0
2016-Jun-19 21:28N 34°41' E 135°11'0 0.0
2016-Jun-19 20:28N 34°41' E 135°11'0 0.0
2016-Jun-19 19:28N 34°41' E 135°11'0 0.0
2016-Jun-19 18:28N 34°41' E 135°11'0 0.0
2016-Jun-19 17:22N 34°41' E 135°11'0 0.0
2016-Jun-19 16:28N 34°41' E 135°11'0 0.0
2016-Jun-19 15:22N 34°41' E 135°11'0 0.0
2016-Jun-19 14:28N 34°41' E 135°11'0 0.0
2016-Jun-19 13:22N 34°41' E 135°11'0 0.0
2016-Jun-19 12:28N 34°41' E 135°11'4 3.9
2016-Jun-19 11:34N 34°38' E 135°09'0 0.1
2016-Jun-19 10:34N 34°38' E 135°09'3 3.3
2016-Jun-19 09:30N 34°41' E 135°11'5 4.9
2016-Jun-19 08:34N 34°38' E 135°07'5 4.6
2016-Jun-19 07:34N 34°41' E 135°11'2 2.2
2016-Jun-19 06:33N 34°39' E 135°11'2 2.2
2016-Jun-19 05:33N 34°41' E 135°11'2 1.7
2016-Jun-19 04:33N 34°39' E 135°11'2 1.6
2016-Jun-19 03:33N 34°38' E 135°10'  
Track history (hours):
 
Tides and Currents Weather Stations Pressure Air Temp Water Temp Dewpoint Dewpoint Depression Visibility Wind Speed Wind Dir Waves Ship Positions

Concerto

Last reported at 2016-Jun-28 11:33 UTC. Time now 2016-Jun-28 18:50 UTC.
Position N 34°37' E 135°10'.

Length 74 m; draft 3 m.

Type: Passenger vessel. MMSI: 431000448.

Date/timePositionNaut miles runAvg speedWind from/ knotsBaromVisibWave heightAir tempDewpointWater temp
2016-Jun-28 11:33N 34°37' E 135°10'1 0.5
2016-Jun-28 10:33N 34°38' E 135°09'3 2.8
2016-Jun-28 09:23N 34°41' E 135°11'5 6.0
2016-Jun-28 08:33N 34°37' E 135°07'5 5.0
2016-Jun-28 07:33N 34°41' E 135°11'3 2.5
2016-Jun-28 06:33N 34°38' E 135°11'0 0.2
2016-Jun-28 04:33N 34°39' E 135°11'2 1.7
2016-Jun-28 03:33N 34°38' E 135°09'3 3.1
2016-Jun-28 02:31N 34°41' E 135°11'3 0.2
2016-Jun-27 11:33N 34°38' E 135°09'0 0.5
2016-Jun-27 10:33N 34°38' E 135°09'3 2.7
2016-Jun-27 09:28N 34°41' E 135°11'5 5.5
2016-Jun-27 08:34N 34°37' E 135°07'5 5.0
2016-Jun-27 07:33N 34°41' E 135°11'2 2.2
2016-Jun-27 06:33N 34°39' E 135°11'2 2.2
2016-Jun-27 05:34N 34°41' E 135°11'2 1.8
2016-Jun-27 04:32N 34°39' E 135°11'2 2.2
2016-Jun-27 03:33N 34°38' E 135°09'0 0.0
2016-Jun-26 11:33N 34°38' E 135°09'0 0.3
2016-Jun-26 10:33N 34°38' E 135°09'3 2.7
2016-Jun-26 09:23N 34°41' E 135°11'5 5.6
2016-Jun-26 08:33N 34°38' E 135°07'5 4.6
2016-Jun-26 07:33N 34°41' E 135°11'2 2.2
2016-Jun-26 06:34N 34°39' E 135°11'2 2.2
2016-Jun-26 05:34N 34°41' E 135°11'1 1.4
2016-Jun-26 04:34N 34°39' E 135°11'2 2.4
2016-Jun-26 03:34N 34°38' E 135°09'3 3.4
2016-Jun-26 02:33N 34°41' E 135°11'0 0.0
2016-Jun-26 01:29N 34°41' E 135°11'0 0.0
2016-Jun-26 00:29N 34°41' E 135°11'0 0.0
2016-Jun-25 23:29N 34°41' E 135°11'0 0.0
2016-Jun-25 22:11N 34°41' E 135°11'0 0.0
2016-Jun-25 21:29N 34°41' E 135°11'0 0.0
2016-Jun-25 20:29N 34°41' E 135°11'0 0.0
2016-Jun-25 19:29N 34°41' E 135°11'0 0.0
2016-Jun-25 18:29N 34°41' E 135°11'0 0.0
2016-Jun-25 17:29N 34°41' E 135°11'0 0.0
2016-Jun-25 16:29N 34°41' E 135°11'0 0.0
2016-Jun-25 15:29N 34°41' E 135°11'0 0.0
2016-Jun-25 14:29N 34°41' E 135°11'0 0.0
2016-Jun-25 13:29N 34°41' E 135°11'0 0.0
2016-Jun-25 12:29N 34°41' E 135°11'3 3.3
2016-Jun-25 11:33N 34°38' E 135°10'0 0.2
2016-Jun-25 10:33N 34°38' E 135°10'3 2.9
2016-Jun-25 09:32N 34°41' E 135°11'4 4.1
2016-Jun-25 08:33N 34°37' E 135°09'4 4.0
2016-Jun-25 07:33N 34°41' E 135°11'2 2.2
2016-Jun-25 06:33N 34°39' E 135°11'2 2.1
2016-Jun-25 05:33N 34°41' E 135°11'2 1.8
2016-Jun-25 04:33N 34°39' E 135°11'5 4.7
2016-Jun-25 03:33N 34°37' E 135°06'6 5.7
2016-Jun-25 02:33N 34°41' E 135°11'0 0.0
2016-Jun-25 01:30N 34°41' E 135°11'0 0.0
2016-Jun-25 00:30N 34°41' E 135°11'0 0.0
2016-Jun-24 23:30N 34°41' E 135°11'0 0.0
2016-Jun-24 22:30N 34°41' E 135°11'0 0.0
2016-Jun-24 21:30N 34°41' E 135°11'0 0.0
2016-Jun-24 20:30N 34°41' E 135°11'0 0.0
2016-Jun-24 19:30N 34°41' E 135°11'0 0.0
2016-Jun-24 18:30N 34°41' E 135°11'0 0.0
2016-Jun-24 17:30N 34°41' E 135°11'0 0.0
2016-Jun-24 16:30N 34°41' E 135°11'0 0.0
2016-Jun-24 15:30N 34°41' E 135°11'0 0.0
2016-Jun-24 14:30N 34°41' E 135°11'0 0.0
2016-Jun-24 13:30N 34°41' E 135°11'0 0.0
2016-Jun-24 12:30N 34°41' E 135°11'2 2.1
2016-Jun-24 11:33N 34°39' E 135°11'2 1.7
2016-Jun-24 10:34N 34°38' E 135°09'3 3.2
2016-Jun-24 09:33N 34°41' E 135°11'4 4.3
2016-Jun-24 08:33N 34°37' E 135°08'4 4.3
2016-Jun-24 07:33N 34°41' E 135°11'1 0.5
2016-Jun-24 04:33N 34°39' E 135°11'2 1.6
2016-Jun-24 03:33N 34°38' E 135°10'1 0.1
2016-Jun-23 11:33N 34°38' E 135°09'0 0.3
2016-Jun-23 10:33N 34°38' E 135°09'3 3.5
2016-Jun-23 09:33N 34°41' E 135°11'5 4.9
2016-Jun-23 08:33N 34°37' E 135°07'5 4.7
2016-Jun-23 07:32N 34°41' E 135°11'0 0.0
2016-Jun-23 05:33N 34°41' E 135°11'2 2.2
2016-Jun-23 04:33N 34°39' E 135°11'2 1.8
2016-Jun-23 03:33N 34°38' E 135°09'3 0.2
2016-Jun-22 12:12N 34°41' E 135°11'3 5.4
2016-Jun-22 11:33N 34°38' E 135°09'0 0.3
2016-Jun-22 10:33N 34°38' E 135°10'3 3.1
2016-Jun-22 09:32N 34°41' E 135°11'5 5.1
2016-Jun-22 08:33N 34°37' E 135°07'5 5.0
2016-Jun-22 07:33N 34°41' E 135°11'2 2.5
2016-Jun-22 06:33N 34°38' E 135°11'2 2.5
2016-Jun-22 05:33N 34°41' E 135°11'2 1.7
2016-Jun-22 04:33N 34°39' E 135°11'2 2.1
2016-Jun-22 03:33N 34°38' E 135°09'3 3.3
2016-Jun-22 02:33N 34°41' E 135°11'0 0.0
2016-Jun-22 01:33N 34°41' E 135°11'0 0.0
2016-Jun-22 00:33N 34°41' E 135°11'0 0.0
2016-Jun-21 23:33N 34°41' E 135°11'0 0.0
2016-Jun-21 22:33N 34°41' E 135°11'0 0.0
2016-Jun-21 21:33N 34°41' E 135°11'0 0.0
2016-Jun-21 20:33N 34°41' E 135°11'0 0.0
2016-Jun-21 19:33N 34°41' E 135°11'0 0.0
2016-Jun-21 18:33N 34°41' E 135°11'0 0.0
2016-Jun-21 17:33N 34°41' E 135°11'0 0.0
2016-Jun-21 16:33N 34°41' E 135°11'0 0.0
2016-Jun-21 15:33N 34°41' E 135°11'0 0.0
2016-Jun-21 14:33N 34°41' E 135°11'0 0.0
2016-Jun-21 13:33N 34°41' E 135°11'0 0.0
2016-Jun-21 12:33N 34°41' E 135°11'3 3.3
2016-Jun-21 11:33N 34°38' E 135°10'1 0.7
2016-Jun-21 10:33N 34°38' E 135°09'4 3.5
2016-Jun-21 09:33N 34°41' E 135°11'5 4.9
2016-Jun-21 08:33N 34°37' E 135°07'5 4.8
2016-Jun-21 07:33N 34°41' E 135°11'3 2.5
2016-Jun-21 06:33N 34°38' E 135°11'1 0.5
2016-Jun-21 04:33N 34°39' E 135°11'2 2.0
2016-Jun-21 03:33N 34°38' E 135°09'3 3.0
2016-Jun-21 02:30N 34°41' E 135°11'0 0.0
2016-Jun-21 01:30N 34°41' E 135°11'0 0.0
2016-Jun-21 00:30N 34°41' E 135°11'0 0.0
2016-Jun-20 23:30N 34°41' E 135°11'0 0.0
2016-Jun-20 22:30N 34°41' E 135°11'0 0.0
2016-Jun-20 21:30N 34°41' E 135°11'0 0.0
2016-Jun-20 20:30N 34°41' E 135°11'0 0.0
2016-Jun-20 19:30N 34°41' E 135°11'0 0.0
2016-Jun-20 18:30N 34°41' E 135°11'0 0.0
2016-Jun-20 17:24N 34°41' E 135°11'0 0.0
2016-Jun-20 16:30N 34°41' E 135°11'0 0.0
2016-Jun-20 15:30N 34°41' E 135°11'0 0.0
2016-Jun-20 14:30N 34°41' E 135°11'0 0.0
2016-Jun-20 13:30N 34°41' E 135°11'0 0.0
2016-Jun-20 12:30N 34°41' E 135°11'3 3.4
2016-Jun-20 11:34N 34°38' E 135°10'1 0.6
2016-Jun-20 10:34N 34°38' E 135°09'3 3.3
2016-Jun-20 09:32N 34°41' E 135°11'5 4.8
2016-Jun-20 08:33N 34°37' E 135°08'5 4.6
2016-Jun-20 07:33N 34°41' E 135°11'2 2.3
2016-Jun-20 06:33N 34°39' E 135°11'2 2.2
2016-Jun-20 05:33N 34°41' E 135°11'2 1.9
2016-Jun-20 04:33N 34°39' E 135°11'2 1.9
2016-Jun-20 03:33N 34°38' E 135°09'3 2.9
2016-Jun-20 02:28N 34°41' E 135°11'0 0.0
2016-Jun-20 01:28N 34°41' E 135°11'0 0.0
2016-Jun-20 00:28N 34°41' E 135°11'0 0.0
2016-Jun-19 23:28N 34°41' E 135°11'0 0.0
2016-Jun-19 22:22N 34°41' E 135°11'0 0.0
2016-Jun-19 21:28N 34°41' E 135°11'0 0.0
2016-Jun-19 20:28N 34°41' E 135°11'0 0.0
2016-Jun-19 19:28N 34°41' E 135°11'0 0.0
2016-Jun-19 18:28N 34°41' E 135°11'0 0.0
2016-Jun-19 17:22N 34°41' E 135°11'0 0.0
2016-Jun-19 16:28N 34°41' E 135°11'0 0.0
2016-Jun-19 15:22N 34°41' E 135°11'0 0.0
2016-Jun-19 14:28N 34°41' E 135°11'0 0.0
2016-Jun-19 13:22N 34°41' E 135°11'0 0.0
2016-Jun-19 12:28N 34°41' E 135°11'4 3.9
2016-Jun-19 11:34N 34°38' E 135°09'0 0.1
2016-Jun-19 10:34N 34°38' E 135°09'3 3.3
2016-Jun-19 09:30N 34°41' E 135°11'5 4.9
2016-Jun-19 08:34N 34°38' E 135°07'5 4.6
2016-Jun-19 07:34N 34°41' E 135°11'2 2.2
2016-Jun-19 06:33N 34°39' E 135°11'2 2.2
2016-Jun-19 05:33N 34°41' E 135°11'2 1.7
2016-Jun-19 04:33N 34°39' E 135°11'2 1.6
2016-Jun-19 03:33N 34°38' E 135°10'  

Dump ship's entire track history